Time;durP1;ratioP1;P1;durP2;ratioP2;P2;SDS_P1;SDS_P2;PMS_P1;PMS_P2;Temp;Humidity;BMP_temperature;BMP_pressure;BME280_temperature;BME280_humidity;BME280_pressure;Samples;Min_cycle;Max_cycle;Signal;HPM_P1;HPM_P2
2021/09/26 00:00:14;;;;;;;;;;;;;;;21.58;53.83;101667.50;2068487;28;970;-67
2021/09/26 00:01:14;;;;;;;;;;;;;;;21.57;53.33;101664.84;2068045;28;1030;-67
2021/09/26 00:02:16;;;;;;;;;;;;;;;21.56;53.58;101666.66;2068422;28;816;-68
2021/09/26 00:03:16;;;;;;;;;;;;;;;21.57;53.41;101670.25;2068427;28;811;-68
2021/09/26 00:04:16;;;;;;;;;;;;;;;21.57;53.42;101681.91;2068337;28;1049;-68
2021/09/26 00:05:17;;;;;;;;;;;;;;;21.56;53.46;101671.16;2068344;28;848;-67
2021/09/26 00:06:17;;;;;;;;;;;;;;;21.56;53.78;101674.72;2068089;28;1891;-68
2021/09/26 00:07:17;;;;;;;;;;;;;;;21.57;53.69;101671.13;2068307;28;990;-67
2021/09/26 00:08:17;;;;;;;;;;;;;;;21.56;54.22;101680.13;2068159;28;1204;-67
2021/09/26 00:09:17;;;;;;;;;;;;;;;21.58;53.53;101677.41;2067875;28;1064;-68
2021/09/26 00:10:17;;;;;;;;;;;;;;;21.56;53.76;101681.94;2068232;28;950;-68
2021/09/26 00:11:18;;;;;;;;;;;;;;;21.56;53.43;101679.25;2068315;28;1033;-68
2021/09/26 00:12:18;;;;;;;;;;;;;;;21.55;53.84;101681.06;2068293;28;761;-67
2021/09/26 00:13:18;;;;;;;;;;;;;;;21.56;53.87;101680.13;2068334;28;962;-67
2021/09/26 00:14:18;;;;;;;;;;;;;;;21.53;53.45;101679.31;2068150;28;1041;-67
2021/09/26 00:15:20;;;;;;;;;;;;;;;21.55;53.63;101683.75;2068054;28;1129;-68
2021/09/26 00:16:21;;;;;;;;;;;;;;;21.55;53.84;101685.56;2068297;28;990;-67
2021/09/26 00:17:21;;;;;;;;;;;;;;;21.55;53.49;101689.13;2068300;28;823;-68
2021/09/26 00:18:21;;;;;;;;;;;;;;;21.56;53.33;101692.72;2068396;28;704;-68
2021/09/26 00:19:21;;;;;;;;;;;;;;;21.54;53.48;101695.44;2068271;28;761;-67
2021/09/26 00:20:22;;;;;;;;;;;;;;;21.56;53.30;101695.44;2067928;28;989;-68
2021/09/26 00:21:22;;;;;;;;;;;;;;;21.58;53.96;101694.44;2068208;28;819;-68
2021/09/26 00:22:23;;;;;;;;;;;;;;;21.52;54.45;101693.72;2068172;28;978;-68
2021/09/26 00:23:25;;;;;;;;;;;;;;;21.56;53.80;101700.81;2068203;28;1460;-67
2021/09/26 00:24:25;;;;;;;;;;;;;;;21.56;54.09;101695.44;2068248;28;803;-67
2021/09/26 00:25:25;;;;;;;;;;;;;;;21.57;53.74;101697.19;2067948;28;1987;-67
2021/09/26 00:26:26;;;;;;;;;;;;;;;21.55;53.97;101696.34;2067920;28;1340;-67
2021/09/26 00:27:26;;;;;;;;;;;;;;;21.56;54.05;101700.81;2068158;28;1049;-68
2021/09/26 00:28:26;;;;;;;;;;;;;;;21.55;53.88;101699.06;2068146;28;832;-67
2021/09/26 00:29:26;;;;;;;;;;;;;;;21.56;53.97;101692.72;2068101;28;1029;-67
2021/09/26 00:30:26;;;;;;;;;;;;;;;21.53;53.24;101690.97;2068209;28;852;-67
2021/09/26 00:31:27;;;;;;;;;;;;;;;21.55;53.79;101693.66;2067821;28;788;-67
2021/09/26 00:32:27;;;;;;;;;;;;;;;21.53;53.54;101693.69;2059843;28;816;-66
2021/09/26 00:33:27;;;;;;;;;;;;;;;21.52;53.68;101693.72;2059591;28;954;-67
2021/09/26 00:34:27;;;;;;;;;;;;;;;21.49;54.12;101700.06;2067998;28;982;-67
2021/09/26 00:35:27;;;;;;;;;;;;;;;21.51;53.37;101694.66;2068155;28;848;-67
2021/09/26 00:36:27;;;;;;;;;;;;;;;21.53;53.35;101703.59;2067819;28;974;-67
2021/09/26 00:37:28;;;;;;;;;;;;;;;21.53;53.78;101699.06;2068087;28;946;-67
2021/09/26 00:38:28;;;;;;;;;;;;;;;21.52;53.28;101700.00;2068134;28;1479;-67
2021/09/26 00:39:28;;;;;;;;;;;;;;;21.55;53.80;101699.91;2067848;28;974;-67
2021/09/26 00:40:28;;;;;;;;;;;;;;;21.52;53.04;101699.13;2067931;28;777;-67
2021/09/26 00:41:29;;;;;;;;;;;;;;;21.52;53.95;101704.50;2068122;28;844;-68
2021/09/26 00:42:29;;;;;;;;;;;;;;;21.52;54.11;101704.50;2067996;28;792;-68
2021/09/26 00:43:30;;;;;;;;;;;;;;;21.55;54.09;101710.69;2068110;28;868;-68
2021/09/26 00:44:30;;;;;;;;;;;;;;;21.52;53.78;101708.06;2068068;28;839;-68
2021/09/26 00:45:31;;;;;;;;;;;;;;;21.52;53.70;101702.69;2067644;28;1886;-68
2021/09/26 00:46:31;;;;;;;;;;;;;;;21.54;53.43;101708.94;2067757;28;1651;-68
2021/09/26 00:47:31;;;;;;;;;;;;;;;21.52;53.51;101715.28;2068031;28;961;-68
2021/09/26 00:48:32;;;;;;;;;;;;;;;21.50;53.36;101715.31;2067983;28;860;-68
2021/09/26 00:49:32;;;;;;;;;;;;;;;21.52;54.12;101709.91;2068069;28;1002;-68
2021/09/26 00:50:32;;;;;;;;;;;;;;;21.54;53.34;101716.16;2067696;28;970;-68
2021/09/26 00:51:32;;;;;;;;;;;;;;;21.50;53.54;101715.31;2067996;28;1038;-68
2021/09/26 00:52:33;;;;;;;;;;;;;;;21.53;53.67;101722.47;2067975;28;990;-68
2021/09/26 00:53:33;;;;;;;;;;;;;;;21.51;53.13;101716.22;2067995;28;784;-68
2021/09/26 00:54:35;;;;;;;;;;;;;;;21.50;53.30;101719.84;2068007;28;856;-67
2021/09/26 00:55:35;;;;;;;;;;;;;;;21.50;53.92;101719.84;2067996;28;1049;-68
2021/09/26 00:56:36;;;;;;;;;;;;;;;21.50;54.09;101722.53;2068003;28;951;-68
2021/09/26 00:57:36;;;;;;;;;;;;;;;21.50;53.80;101725.22;2067919;28;907;-68
2021/09/26 00:58:37;;;;;;;;;;;;;;;21.53;52.91;101726.03;2067589;28;784;-68
2021/09/26 00:59:37;;;;;;;;;;;;;;;21.50;53.05;101726.09;2067971;28;989;-67
2021/09/26 01:00:37;;;;;;;;;;;;;;;21.53;53.99;101733.25;2068191;28;1064;-67
2021/09/26 01:01:37;;;;;;;;;;;;;;;21.50;53.96;101733.31;2068117;28;852;-67
2021/09/26 01:02:38;;;;;;;;;;;;;;;21.50;53.46;101730.63;2068113;28;773;-67
2021/09/26 01:03:38;;;;;;;;;;;;;;;21.53;53.06;101735.94;2068057;28;1001;-68
2021/09/26 01:04:38;;;;;;;;;;;;;;;21.52;53.44;101736.84;2068763;28;1381;-68
2021/09/26 01:05:38;;;;;;;;;;;;;;;21.52;53.43;101736.84;2075934;28;1943;-68
2021/09/26 01:06:58;;;;;;;;;;;;;;;21.48;53.71;101742.31;2075882;28;1227;-69
2021/09/26 01:08:11;;;;;;;;;;;;;;;21.51;53.42;101740.47;2076005;28;784;-68
2021/09/26 01:09:14;;;;;;;;;;;;;;;21.50;53.72;101733.31;2074989;28;1083;-68
2021/09/26 01:10:32;;;;;;;;;;;;;;;21.51;53.80;101730.56;2075677;28;1045;-68
2021/09/26 01:11:35;;;;;;;;;;;;;;;21.52;53.44;101747.66;2075943;28;1029;-68
2021/09/26 01:12:54;;;;;;;;;;;;;;;21.51;53.27;101735.09;2075807;28;970;-68
2021/09/26 01:14:06;;;;;;;;;;;;;;;21.47;53.40;101751.34;2076007;28;1121;-68
2021/09/26 01:15:11;;;;;;;;;;;;;;;21.53;53.34;101754.81;2075915;28;808;-68
2021/09/26 01:16:11;;;;;;;;;;;;;;;21.51;53.67;101759.34;2075878;28;870;-68
2021/09/26 01:17:30;;;;;;;;;;;;;;;21.49;53.58;101756.66;2076017;28;883;-68
2021/09/26 01:18:32;;;;;;;;;;;;;;;21.47;53.96;101753.16;2075827;28;993;-68
2021/09/26 01:19:51;;;;;;;;;;;;;;;21.50;53.05;101753.06;2075683;28;866;-68
2021/09/26 01:20:56;;;;;;;;;;;;;;;21.48;53.09;101763.00;2075910;28;974;-68
2021/09/26 01:22:05;;;;;;;;;;;;;;;21.49;53.59;101762.06;2075959;28;787;-68
2021/09/26 01:23:05;;;;;;;;;;;;;;;21.48;53.90;101763.88;2075876;28;989;-68
2021/09/26 01:24:05;;;;;;;;;;;;;;;21.50;53.12;101771.06;2068009;28;1520;-68
2021/09/26 01:25:11;;;;;;;;;;;;;;;21.50;53.38;101765.66;2058878;28;1187;-68
2021/09/26 01:26:12;;;;;;;;;;;;;;;21.51;53.32;101768.31;2059790;28;1967;-68
2021/09/26 01:27:22;;;;;;;;;;;;;;;21.50;53.79;101769.22;2067711;28;784;-68
2021/09/26 01:28:31;;;;;;;;;;;;;;;21.50;53.19;101763.84;2067752;28;795;-68
2021/09/26 01:29:58;;;;;;;;;;;;;;;21.49;53.22;101767.44;2067832;28;843;-68
2021/09/26 01:31:07;;;;;;;;;;;;;;;21.48;53.53;101765.72;2068078;28;1335;-67
2021/09/26 01:32:08;;;;;;;;;;;;;;;21.51;53.75;101778.22;2068282;28;835;-68
2021/09/26 01:33:21;;;;;;;;;;;;;;;21.48;53.46;101777.38;2059370;28;785;-68
2021/09/26 01:34:23;;;;;;;;;;;;;;;21.50;54.03;101780.00;2060707;28;859;-69
2021/09/26 01:35:25;;;;;;;;;;;;;;;21.47;53.52;101783.69;2067378;28;1040;-68
2021/09/26 01:36:29;;;;;;;;;;;;;;;21.48;53.48;101780.06;2067548;28;851;-68
2021/09/26 01:37:30;;;;;;;;;;;;;;;21.45;53.24;101788.22;2059013;28;1336;-68
2021/09/26 01:38:34;;;;;;;;;;;;;;;21.48;53.76;101785.44;2059081;28;866;-68
2021/09/26 01:39:43;;;;;;;;;;;;;;;21.47;53.48;101785.50;2067634;28;1160;-68
2021/09/26 01:40:49;;;;;;;;;;;;;;;21.48;53.98;101785.44;2067560;28;815;-68
2021/09/26 01:41:55;;;;;;;;;;;;;;;21.47;53.63;101794.47;2067475;28;1423;-68
2021/09/26 01:42:59;;;;;;;;;;;;;;;21.47;53.92;101789.06;2067669;28;793;-68
2021/09/26 01:44:01;;;;;;;;;;;;;;;21.47;53.76;101790.91;2067641;28;1377;-68
2021/09/26 01:45:07;;;;;;;;;;;;;;;21.46;54.43;101794.50;2067624;28;851;-68
2021/09/26 01:46:08;;;;;;;;;;;;;;;21.47;53.24;101794.47;2067472;28;1918;-68
2021/09/26 01:47:11;;;;;;;;;;;;;;;21.44;53.86;101793.66;2067241;28;1160;-68
2021/09/26 01:48:14;;;;;;;;;;;;;;;21.46;53.55;101798.06;2067584;28;779;-68
2021/09/26 01:49:20;;;;;;;;;;;;;;;21.46;53.56;101799.91;2067550;28;950;-68
2021/09/26 01:50:22;;;;;;;;;;;;;;;21.45;53.48;101799.00;2067655;28;906;-68
2021/09/26 01:51:24;;;;;;;;;;;;;;;21.45;53.69;101795.44;2067542;28;878;-68
2021/09/26 01:52:26;;;;;;;;;;;;;;;21.48;53.45;101803.44;2067160;28;890;-68
2021/09/26 01:53:28;;;;;;;;;;;;;;;21.45;53.88;101800.81;2067587;28;867;-68
2021/09/26 01:54:28;;;;;;;;;;;;;;;21.44;53.80;101801.75;2067547;28;977;-68
2021/09/26 01:55:28;;;;;;;;;;;;;;;21.44;53.87;101812.53;2058893;28;1204;-68
2021/09/26 01:56:29;;;;;;;;;;;;;;;21.46;53.25;101813.38;2058955;28;796;-68
2021/09/26 01:57:29;;;;;;;;;;;;;;;21.46;53.45;101816.06;2067271;28;906;-68
2021/09/26 01:58:30;;;;;;;;;;;;;;;21.45;53.87;101825.09;2067351;28;773;-68
2021/09/26 01:59:32;;;;;;;;;;;;;;;21.44;53.28;101821.47;2067608;28;962;-68
2021/09/26 02:00:32;;;;;;;;;;;;;;;21.46;53.16;101819.63;2067530;28;878;-68
2021/09/26 02:01:33;;;;;;;;;;;;;;;21.46;53.78;101816.06;2067488;28;804;-68
2021/09/26 02:02:34;;;;;;;;;;;;;;;21.44;53.85;101823.31;2067393;28;974;-68
2021/09/26 02:03:34;;;;;;;;;;;;;;;21.45;53.32;101823.25;2067152;28;997;-68
2021/09/26 02:04:35;;;;;;;;;;;;;;;21.46;54.19;101821.47;2067464;28;1235;-68
2021/09/26 02:05:42;;;;;;;;;;;;;;;21.43;53.04;101814.31;2067451;28;1907;-68
2021/09/26 02:06:43;;;;;;;;;;;;;;;21.46;52.97;101816.06;2067291;28;994;-68
2021/09/26 02:07:44;;;;;;;;;;;;;;;21.42;54.45;101817.06;2067391;28;997;-69
2021/09/26 02:08:44;;;;;;;;;;;;;;;21.46;54.28;101821.47;2074651;28;1540;-68
2021/09/26 02:09:46;;;;;;;;;;;;;;;21.44;54.21;101821.47;2075550;28;879;-69
2021/09/26 02:10:47;;;;;;;;;;;;;;;21.41;53.45;101826.94;2075248;28;891;-68
2021/09/26 02:11:48;;;;;;;;;;;;;;;21.42;53.41;101817.94;2075447;28;990;-68
2021/09/26 02:12:49;;;;;;;;;;;;;;;21.43;54.01;101827.78;2075521;28;990;-68
2021/09/26 02:13:49;;;;;;;;;;;;;;;21.46;53.62;101824.16;2075537;28;811;-68
2021/09/26 02:14:50;;;;;;;;;;;;;;;21.44;53.88;101829.56;2075564;28;784;-69
2021/09/26 02:15:51;;;;;;;;;;;;;;;21.42;53.45;101834.09;2075457;28;804;-69
2021/09/26 02:16:52;;;;;;;;;;;;;;;21.42;53.44;101833.22;2075102;28;1203;-68
2021/09/26 02:17:53;;;;;;;;;;;;;;;21.40;53.97;101840.47;2075463;28;997;-68
2021/09/26 02:18:53;;;;;;;;;;;;;;;21.40;54.25;101835.94;2075429;28;1044;-68
2021/09/26 02:20:00;;;;;;;;;;;;;;;21.42;53.88;101842.19;2075418;28;1227;-68
2021/09/26 02:21:01;;;;;;;;;;;;;;;21.42;54.37;101839.50;2075393;28;891;-68
2021/09/26 02:22:01;;;;;;;;;;;;;;;21.44;53.36;101843.03;2075073;28;800;-68
2021/09/26 02:23:02;;;;;;;;;;;;;;;21.44;53.66;101843.03;2075332;28;983;-69
2021/09/26 02:24:03;;;;;;;;;;;;;;;21.42;54.04;101844.88;2068073;28;1132;-68
2021/09/26 02:25:05;;;;;;;;;;;;;;;21.42;54.00;101844.00;2067307;28;1077;-68
2021/09/26 02:26:06;;;;;;;;;;;;;;;21.43;54.24;101841.28;2067204;28;1981;-68
2021/09/26 02:27:06;;;;;;;;;;;;;;;21.47;53.31;101847.50;2067060;28;855;-68
2021/09/26 02:28:07;;;;;;;;;;;;;;;21.44;53.25;101845.75;2067071;28;1061;-69
2021/09/26 02:29:08;;;;;;;;;;;;;;;21.43;53.36;101852.06;2067266;28;760;-68
2021/09/26 02:30:09;;;;;;;;;;;;;;;21.45;53.65;101861.00;2067223;28;836;-68
2021/09/26 02:31:09;;;;;;;;;;;;;;;21.44;53.72;101859.22;2067347;28;812;-68
2021/09/26 02:32:09;;;;;;;;;;;;;;;21.42;54.20;101857.50;2067267;28;852;-68
2021/09/26 02:33:09;;;;;;;;;;;;;;;21.42;53.51;101861.06;2066854;28;1045;-68
2021/09/26 02:34:10;;;;;;;;;;;;;;;21.44;53.27;101859.22;2058582;28;812;-68
2021/09/26 02:35:11;;;;;;;;;;;;;;;21.42;53.31;101862.88;2058634;28;875;-68
2021/09/26 02:36:12;;;;;;;;;;;;;;;21.45;53.64;101863.69;2067225;28;785;-68
2021/09/26 02:37:13;;;;;;;;;;;;;;;21.45;54.24;101863.69;2067194;28;860;-69
2021/09/26 02:38:13;;;;;;;;;;;;;;;21.43;53.65;101867.34;2066934;28;971;-68
2021/09/26 02:39:15;;;;;;;;;;;;;;;21.46;53.20;101867.28;2067060;28;816;-68
2021/09/26 02:40:16;;;;;;;;;;;;;;;21.45;53.49;101874.47;2067146;28;982;-68
2021/09/26 02:41:29;;;;;;;;;;;;;;;21.46;53.85;101872.69;2067215;28;938;-68
2021/09/26 02:42:48;;;;;;;;;;;;;;;21.46;53.61;101878.94;2067165;28;1053;-68
2021/09/26 02:43:54;;;;;;;;;;;;;;;21.46;53.52;101878.94;2067046;28;884;-69
2021/09/26 02:45:09;;;;;;;;;;;;;;;21.45;53.47;101881.69;2067112;28;1345;-68
2021/09/26 02:46:13;;;;;;;;;;;;;;;21.43;54.00;101883.53;2066857;28;1955;-69
2021/09/26 02:47:17;;;;;;;;;;;;;;;21.42;54.04;101887.16;2067041;28;1269;-68
2021/09/26 02:48:19;;;;;;;;;;;;;;;21.43;53.20;101888.91;2067059;28;1033;-69
2021/09/26 02:49:19;;;;;;;;;;;;;;;21.44;53.87;101890.69;2066980;28;859;-68
2021/09/26 02:50:20;;;;;;;;;;;;;;;21.45;54.25;101887.94;2066837;28;1201;-68
2021/09/26 02:51:20;;;;;;;;;;;;;;;21.44;53.97;101890.69;2067448;28;810;-67
2021/09/26 02:52:21;;;;;;;;;;;;;;;21.43;54.06;101894.31;2067453;28;792;-68
2021/09/26 02:53:21;;;;;;;;;;;;;;;21.44;53.93;101898.78;2067060;28;841;-68
2021/09/26 02:54:22;;;;;;;;;;;;;;;21.42;53.44;101898.78;2067133;28;1045;-69
2021/09/26 02:55:24;;;;;;;;;;;;;;;21.44;53.91;101901.47;2066764;28;1029;-68
2021/09/26 02:56:24;;;;;;;;;;;;;;;21.45;53.39;101903.25;2067086;28;784;-68
2021/09/26 02:57:25;;;;;;;;;;;;;;;21.44;53.96;101904.16;2067098;28;962;-68
2021/09/26 02:58:25;;;;;;;;;;;;;;;21.43;54.11;101897.00;2067052;28;895;-68
2021/09/26 02:59:25;;;;;;;;;;;;;;;21.45;53.13;101901.44;2067123;28;784;-68
2021/09/26 03:00:30;;;;;;;;;;;;;;;21.44;54.17;101906.88;2066789;28;1585;-68
2021/09/26 03:01:30;;;;;;;;;;;;;;;21.47;54.06;101904.13;2067005;28;836;-69
2021/09/26 03:02:31;;;;;;;;;;;;;;;21.43;53.95;101900.56;2067052;28;974;-68
2021/09/26 03:03:31;;;;;;;;;;;;;;;21.44;53.38;101910.44;2067042;28;891;-69
2021/09/26 03:04:31;;;;;;;;;;;;;;;21.47;53.25;101906.81;2067017;28;1037;-68
2021/09/26 03:05:31;;;;;;;;;;;;;;;21.45;53.38;101914.03;2066668;28;1959;-69
2021/09/26 03:06:32;;;;;;;;;;;;;;;21.40;53.87;101916.81;2057741;28;1358;-69
2021/09/26 03:07:32;;;;;;;;;;;;;;;21.45;53.50;101912.22;2058181;28;1037;-68
2021/09/26 03:08:32;;;;;;;;;;;;;;;21.43;53.52;101907.78;2066896;28;919;-69
2021/09/26 03:09:32;;;;;;;;;;;;;;;21.47;53.52;101920.28;2066819;28;1354;-68
2021/09/26 03:10:33;;;;;;;;;;;;;;;21.43;53.56;101916.75;2066886;28;969;-69
2021/09/26 03:11:33;;;;;;;;;;;;;;;21.41;53.45;101917.72;2067024;28;985;-68
2021/09/26 03:12:33;;;;;;;;;;;;;;;21.45;54.09;101923.00;2066905;28;870;-68
2021/09/26 03:13:33;;;;;;;;;;;;;;;21.46;53.80;101922.06;2067018;28;843;-69
2021/09/26 03:14:33;;;;;;;;;;;;;;;21.44;53.34;101928.44;2066551;28;922;-68
2021/09/26 03:15:34;;;;;;;;;;;;;;;21.45;53.43;101923.00;2066949;28;1049;-68
2021/09/26 03:16:34;;;;;;;;;;;;;;;21.46;53.92;101926.59;2066919;28;986;-69
2021/09/26 03:17:35;;;;;;;;;;;;;;;21.43;53.33;101922.13;2067042;28;1016;-69
2021/09/26 03:18:35;;;;;;;;;;;;;;;21.45;53.46;101924.81;2066885;28;982;-69
2021/09/26 03:19:35;;;;;;;;;;;;;;;21.44;53.35;101923.91;2066680;28;799;-69
2021/09/26 03:20:35;;;;;;;;;;;;;;;21.45;53.75;101925.69;2066744;28;946;-69
2021/09/26 03:21:35;;;;;;;;;;;;;;;21.44;53.09;101923.91;2066932;28;772;-68
2021/09/26 03:22:35;;;;;;;;;;;;;;;21.45;53.43;101925.69;2066992;28;859;-68
2021/09/26 03:23:35;;;;;;;;;;;;;;;21.44;53.72;101928.44;2067116;28;1200;-68
2021/09/26 03:24:37;;;;;;;;;;;;;;;21.43;53.24;101924.84;2067230;28;982;-67
2021/09/26 03:25:37;;;;;;;;;;;;;;;21.46;53.52;101923.91;2066651;28;1919;-68
2021/09/26 03:26:37;;;;;;;;;;;;;;;21.45;53.78;101924.81;2066895;28;878;-69
2021/09/26 03:27:38;;;;;;;;;;;;;;;21.42;54.16;101925.75;2066762;28;1041;-69
2021/09/26 03:28:38;;;;;;;;;;;;;;;21.43;54.14;101932.03;2066914;28;982;-69
2021/09/26 03:29:40;;;;;;;;;;;;;;;21.42;53.93;101931.13;2066872;28;828;-68
2021/09/26 03:30:40;;;;;;;;;;;;;;;21.42;53.37;101925.75;2066481;28;847;-68
2021/09/26 03:31:41;;;;;;;;;;;;;;;21.46;54.07;101931.97;2067035;28;728;-69
2021/09/26 03:32:41;;;;;;;;;;;;;;;21.44;53.64;101928.44;2069199;28;1068;-70
2021/09/26 03:33:41;;;;;;;;;;;;;;;21.43;53.77;101937.44;2069593;28;839;-68
2021/09/26 03:34:42;;;;;;;;;;;;;;;21.42;53.46;101925.75;2069575;28;1330;-68
2021/09/26 03:35:42;;;;;;;;;;;;;;;21.40;53.83;101930.28;2069518;28;856;-68
2021/09/26 03:36:42;;;;;;;;;;;;;;;21.45;53.21;101930.22;2069273;28;1103;-69
2021/09/26 03:37:42;;;;;;;;;;;;;;;21.44;53.19;101932.00;2069562;28;966;-68
2021/09/26 03:38:42;;;;;;;;;;;;;;;21.43;53.84;101934.75;2069541;28;966;-68
2021/09/26 03:39:42;;;;;;;;;;;;;;;21.44;53.28;101932.00;2069555;28;918;-69
2021/09/26 03:40:43;;;;;;;;;;;;;;;21.44;53.44;101931.13;2069546;28;847;-68
2021/09/26 03:41:43;;;;;;;;;;;;;;;21.45;53.98;101932.91;2069142;28;1033;-69
2021/09/26 03:42:43;;;;;;;;;;;;;;;21.43;53.66;101932.91;2069453;28;867;-68
2021/09/26 03:43:43;;;;;;;;;;;;;;;21.44;54.03;101934.69;2069573;28;779;-68
2021/09/26 03:44:43;;;;;;;;;;;;;;;21.44;53.57;101939.22;2069504;28;918;-68
2021/09/26 03:45:50;;;;;;;;;;;;;;;21.44;53.27;101941.91;2069500;28;1890;-68
2021/09/26 03:46:50;;;;;;;;;;;;;;;21.42;53.80;101932.97;2069330;28;808;-69
2021/09/26 03:47:50;;;;;;;;;;;;;;;21.43;54.04;101945.53;2069412;28;793;-68
2021/09/26 03:48:50;;;;;;;;;;;;;;;21.40;54.04;101938.38;2069513;28;800;-68
2021/09/26 03:49:50;;;;;;;;;;;;;;;21.42;53.91;101943.75;2069265;28;1017;-68
2021/09/26 03:50:51;;;;;;;;;;;;;;;21.41;54.20;101940.16;2069433;28;819;-68
2021/09/26 03:51:51;;;;;;;;;;;;;;;21.42;53.71;101944.63;2069496;28;1243;-69
2021/09/26 03:52:52;;;;;;;;;;;;;;;21.44;54.02;101939.22;2069387;28;1041;-68
2021/09/26 03:53:52;;;;;;;;;;;;;;;21.41;53.09;101945.53;2069204;28;1319;-68
2021/09/26 03:54:52;;;;;;;;;;;;;;;21.41;53.34;101940.16;2069511;28;785;-68
2021/09/26 03:55:52;;;;;;;;;;;;;;;21.41;53.95;101940.16;2069530;28;808;-69
2021/09/26 03:56:52;;;;;;;;;;;;;;;21.38;53.53;101932.13;2069529;28;796;-68
2021/09/26 03:57:53;;;;;;;;;;;;;;;21.42;53.43;101941.91;2069458;28;971;-68
2021/09/26 03:58:53;;;;;;;;;;;;;;;21.43;53.73;101943.69;2069093;28;768;-69
2021/09/26 03:59:53;;;;;;;;;;;;;;;21.42;53.55;101939.22;2069464;28;780;-68
2021/09/26 04:00:53;;;;;;;;;;;;;;;21.40;53.88;101942.88;2069433;28;910;-68
2021/09/26 04:01:53;;;;;;;;;;;;;;;21.43;54.32;101946.41;2069478;28;1018;-68
2021/09/26 04:02:53;;;;;;;;;;;;;;;21.45;54.02;101944.56;2069433;28;834;-69
2021/09/26 04:03:54;;;;;;;;;;;;;;;22.05;52.02;101944.28;2069346;28;859;-69
2021/09/26 04:04:54;;;;;;;;;;;;;;;22.26;51.38;101944.69;2069216;28;1033;-68
2021/09/26 04:05:54;;;;;;;;;;;;;;;22.32;51.19;101949.94;2069413;28;1955;-69
2021/09/26 04:06:54;;;;;;;;;;;;;;;22.42;51.05;101954.22;2069444;28;781;-68
2021/09/26 04:07:54;;;;;;;;;;;;;;;22.46;51.04;101955.94;2069412;28;1014;-69
2021/09/26 04:08:54;;;;;;;;;;;;;;;22.51;50.25;101955.81;2069093;28;1339;-68
2021/09/26 04:09:55;;;;;;;;;;;;;;;22.55;49.98;101952.13;2069442;28;1045;-69
2021/09/26 04:10:55;;;;;;;;;;;;;;;22.56;50.47;101959.31;2069415;28;1040;-69
2021/09/26 04:11:55;;;;;;;;;;;;;;;22.61;50.18;101960.06;2069172;28;770;-68
2021/09/26 04:12:55;;;;;;;;;;;;;;;22.64;49.66;101960.00;2069240;28;1236;-69
2021/09/26 04:13:55;;;;;;;;;;;;;;;22.68;50.85;101958.09;2069406;28;1033;-68
2021/09/26 04:14:55;;;;;;;;;;;;;;;22.68;50.60;101952.69;2069365;28;836;-69
2021/09/26 04:15:55;;;;;;;;;;;;;;;22.73;50.28;101950.78;2069449;28;1317;-68
2021/09/26 04:16:56;;;;;;;;;;;;;;;22.75;50.61;101946.22;2069358;28;970;-69
2021/09/26 04:17:56;;;;;;;;;;;;;;;22.75;50.06;101958.84;2060482;28;1566;-69
2021/09/26 04:18:56;;;;;;;;;;;;;;;22.79;49.70;101956.03;2060829;28;804;-68
2021/09/26 04:19:56;;;;;;;;;;;;;;;22.82;49.90;101959.56;2069872;28;986;-68
2021/09/26 04:20:57;;;;;;;;;;;;;;;22.84;49.77;101958.63;2069360;28;663;-69
2021/09/26 04:21:57;;;;;;;;;;;;;;;22.85;49.51;101963.09;2069378;28;852;-69
2021/09/26 04:22:57;;;;;;;;;;;;;;;22.83;49.86;101972.16;2069142;28;836;-69
2021/09/26 04:23:57;;;;;;;;;;;;;;;22.85;50.25;101965.81;2069299;28;1532;-68
2021/09/26 04:24:57;;;;;;;;;;;;;;;22.88;50.03;101968.44;2069426;28;907;-69
2021/09/26 04:25:57;;;;;;;;;;;;;;;22.89;49.69;101964.81;2069257;28;1973;-68
2021/09/26 04:26:58;;;;;;;;;;;;;;;22.88;49.79;101968.44;2069411;28;1026;-69
2021/09/26 04:27:58;;;;;;;;;;;;;;;22.86;49.86;101961.28;2069304;28;831;-68
2021/09/26 04:28:58;;;;;;;;;;;;;;;22.87;50.12;101963.97;2069036;28;784;-68
2021/09/26 04:29:59;;;;;;;;;;;;;;;22.92;49.49;101963.81;2069357;28;963;-69
2021/09/26 04:30:59;;;;;;;;;;;;;;;22.90;49.74;101963.88;2069331;28;801;-68
2021/09/26 04:31:59;;;;;;;;;;;;;;;22.89;49.65;101961.19;2069378;28;1069;-69
2021/09/26 04:32:59;;;;;;;;;;;;;;;22.90;50.06;101962.97;2069334;28;1049;-68
2021/09/26 04:34:00;;;;;;;;;;;;;;;22.89;50.18;101964.81;2069021;28;1037;-69
2021/09/26 04:35:00;;;;;;;;;;;;;;;22.91;49.67;101965.66;2069322;28;990;-68
2021/09/26 04:36:01;;;;;;;;;;;;;;;22.89;49.88;101959.41;2069343;28;879;-68
2021/09/26 04:37:03;;;;;;;;;;;;;;;22.92;50.00;101963.81;2068964;28;887;-68
2021/09/26 04:38:03;;;;;;;;;;;;;;;22.94;49.54;101962.88;2069377;28;898;-69
2021/09/26 04:39:04;;;;;;;;;;;;;;;22.91;50.20;101965.66;2069324;28;926;-69
2021/09/26 04:40:04;;;;;;;;;;;;;;;22.92;50.05;101963.81;2069323;28;776;-68
2021/09/26 04:41:04;;;;;;;;;;;;;;;22.93;49.65;101968.31;2069305;28;966;-68
2021/09/26 04:42:06;;;;;;;;;;;;;;;22.94;49.60;101967.38;2069231;28;769;-68
2021/09/26 04:43:07;;;;;;;;;;;;;;;22.93;50.06;101969.19;2069114;28;887;-68
2021/09/26 04:44:07;;;;;;;;;;;;;;;22.92;50.27;101970.13;2066886;28;843;-68
2021/09/26 04:45:09;;;;;;;;;;;;;;;22.90;49.65;101968.38;2068200;28;978;-67
2021/09/26 04:46:10;;;;;;;;;;;;;;;22.95;49.89;101967.34;2068130;28;1894;-67
2021/09/26 04:47:10;;;;;;;;;;;;;;;22.93;49.79;101969.19;2068303;28;1045;-67
2021/09/26 04:48:11;;;;;;;;;;;;;;;22.91;49.84;101967.44;2067928;28;848;-68
2021/09/26 04:49:11;;;;;;;;;;;;;;;22.93;50.38;101969.19;2068020;28;881;-68
2021/09/26 04:50:12;;;;;;;;;;;;;;;22.92;50.04;101975.53;2067984;28;859;-68
2021/09/26 04:51:12;;;;;;;;;;;;;;;22.94;49.97;101973.69;2067696;28;847;-68
2021/09/26 04:52:12;;;;;;;;;;;;;;;22.95;50.30;101972.75;2068005;28;990;-68
2021/09/26 04:53:12;;;;;;;;;;;;;;;22.97;49.69;101977.19;2068058;28;808;-67
2021/09/26 04:54:13;;;;;;;;;;;;;;;22.99;49.72;101973.56;2068026;28;986;-67
2021/09/26 04:55:13;;;;;;;;;;;;;;;22.94;49.87;101976.38;2067961;28;866;-66
2021/09/26 04:56:13;;;;;;;;;;;;;;;22.97;50.04;101975.41;2067746;28;1202;-66
2021/09/26 04:57:14;;;;;;;;;;;;;;;22.98;50.36;101982.59;2067862;28;891;-65
2021/09/26 04:58:14;;;;;;;;;;;;;;;22.99;49.76;101980.75;2067875;28;847;-64
2021/09/26 04:59:15;;;;;;;;;;;;;;;22.98;49.79;101974.47;2067951;28;922;-65
2021/09/26 05:00:15;;;;;;;;;;;;;;;22.97;50.00;101972.69;2067958;28;801;-66
2021/09/26 05:01:16;;;;;;;;;;;;;;;22.92;49.87;101972.84;2067976;28;970;-65
2021/09/26 05:02:16;;;;;;;;;;;;;;;22.92;50.20;101978.25;2067535;28;854;-65
2021/09/26 05:03:16;;;;;;;;;;;;;;;22.92;50.69;101978.25;2067944;28;985;-64
2021/09/26 05:04:17;;;;;;;;;;;;;;;22.90;50.54;101984.59;2067936;28;981;-66
2021/09/26 05:05:17;;;;;;;;;;;;;;;22.90;50.36;101980.09;2068036;28;827;-66
2021/09/26 05:06:17;;;;;;;;;;;;;;;22.91;49.84;101975.56;2067836;28;1934;-67
2021/09/26 05:07:20;;;;;;;;;;;;;;;22.90;50.38;101971.97;2067586;28;768;-67
2021/09/26 05:08:20;;;;;;;;;;;;;;;22.90;50.59;101988.19;2067347;28;839;-69
2021/09/26 05:09:20;;;;;;;;;;;;;;;22.94;50.56;101981.78;2067487;28;1056;-69
2021/09/26 05:10:20;;;;;;;;;;;;;;;22.95;50.56;101979.97;2067914;28;1038;-68
2021/09/26 05:11:21;;;;;;;;;;;;;;;22.95;50.35;101983.56;2067943;28;749;-69
2021/09/26 05:12:21;;;;;;;;;;;;;;;22.96;50.05;101984.44;2067900;28;1044;-68
2021/09/26 05:13:21;;;;;;;;;;;;;;;22.96;50.26;101992.53;2067841;28;973;-68
2021/09/26 05:14:21;;;;;;;;;;;;;;;22.99;50.47;101988.84;2067882;28;906;-69
2021/09/26 05:15:21;;;;;;;;;;;;;;;22.95;50.48;101994.38;2067519;28;756;-68
2021/09/26 05:16:22;;;;;;;;;;;;;;;22.99;49.88;101994.25;2067958;28;856;-68
2021/09/26 05:17:22;;;;;;;;;;;;;;;22.98;50.07;101993.38;2067907;28;1132;-67
2021/09/26 05:18:22;;;;;;;;;;;;;;;22.99;50.01;101986.16;2068056;28;780;-68
2021/09/26 05:19:22;;;;;;;;;;;;;;;22.99;50.84;101986.16;2068083;28;1021;-68
2021/09/26 05:20:23;;;;;;;;;;;;;;;22.97;50.10;101991.63;2067619;28;978;-68
2021/09/26 05:21:23;;;;;;;;;;;;;;;22.99;50.14;101986.16;2067833;28;716;-68
2021/09/26 05:22:23;;;;;;;;;;;;;;;23.00;50.20;101990.63;2067717;28;863;-69